Time;durP1;ratioP1;P1;durP2;ratioP2;P2;SDS_P1;SDS_P2;PMS_P1;PMS_P2;Temp;Humidity;BMP_temperature;BMP_pressure;BME280_temperature;BME280_humidity;BME280_pressure;Samples;Min_cycle;Max_cycle;Signal;HPM_P1;HPM_P2
2024/02/02 00:00:14;;;;;;;15.27;9.27;;;9.50;99.90;;;;;;4974715;28;20178;-69
2024/02/02 00:02:40;;;;;;;18.67;9.27;;;9.40;99.90;;;;;;4992002;28;20566;-70
2024/02/02 00:05:07;;;;;;;12.53;8.30;;;9.40;99.90;;;;;;4974620;28;20849;-69
2024/02/02 00:07:34;;;;;;;14.77;8.40;;;9.40;99.90;;;;;;4991808;28;20428;-70
2024/02/02 00:10:00;;;;;;;12.67;8.30;;;9.50;99.90;;;;;;4991761;28;20475;-68
2024/02/02 00:12:26;;;;;;;12.67;8.00;;;9.50;99.90;;;;;;4991884;28;20422;-69
2024/02/02 00:14:52;;;;;;;14.93;7.93;;;9.50;99.90;;;;;;4991900;28;20445;-70
2024/02/02 00:17:21;;;;;;;14.53;7.30;;;9.50;99.90;;;;;;4991174;28;20473;-69
2024/02/02 00:19:46;;;;;;;16.60;8.43;;;9.50;99.90;;;;;;4991952;28;20443;-69
2024/02/02 00:22:12;;;;;;;16.43;7.77;;;9.50;99.90;;;;;;4991385;28;20436;-64
2024/02/02 00:24:38;;;;;;;14.30;7.20;;;9.50;99.90;;;;;;4991951;28;20461;-69
2024/02/02 00:27:05;;;;;;;19.10;8.23;;;9.40;99.90;;;;;;4992704;28;20882;-70
2024/02/02 00:29:31;;;;;;;11.60;7.60;;;9.40;99.90;;;;;;4991067;28;20512;-70
2024/02/02 00:31:57;;;;;;;15.47;8.20;;;9.40;99.90;;;;;;4974598;28;20911;-69
2024/02/02 00:34:22;;;;;;;13.80;7.30;;;9.30;99.90;;;;;;4992103;28;20762;-69
2024/02/02 00:36:48;;;;;;;12.93;7.50;;;9.30;99.90;;;;;;4991926;28;20442;-70
2024/02/02 00:39:14;;;;;;;14.53;6.03;;;9.30;99.90;;;;;;4990521;28;20236;-68
2024/02/02 00:41:40;;;;;;;15.00;7.50;;;9.30;99.90;;;;;;4992752;28;20247;-70
2024/02/02 00:44:07;;;;;;;13.37;6.60;;;9.40;99.90;;;;;;4991553;28;20221;-70
2024/02/02 00:46:32;;;;;;;13.97;6.97;;;9.40;99.90;;;;;;4992534;28;20191;-69
2024/02/02 00:48:58;;;;;;;15.53;6.77;;;9.30;99.90;;;;;;4996248;28;20420;-69
2024/02/02 00:51:24;;;;;;;13.33;6.10;;;9.20;99.90;;;;;;4994558;28;20450;-69
2024/02/02 00:53:50;;;;;;;11.67;6.50;;;9.20;99.90;;;;;;4994858;28;20654;-69
2024/02/02 00:56:16;;;;;;;17.27;7.10;;;9.30;99.90;;;;;;4977493;28;20184;-68
2024/02/02 00:58:41;;;;;;;15.47;7.90;;;9.20;99.90;;;;;;4995319;28;20553;-69
2024/02/02 01:01:07;;;;;;;13.83;6.80;;;9.20;99.90;;;;;;4995223;28;20195;-70
2024/02/02 01:03:33;;;;;;;13.77;7.00;;;9.20;99.90;;;;;;4995408;28;20203;-70
2024/02/02 01:05:59;;;;;;;16.30;7.80;;;9.20;99.90;;;;;;4995061;28;20427;-69
2024/02/02 01:08:25;;;;;;;15.57;7.27;;;9.10;99.90;;;;;;4994293;28;20221;-69
2024/02/02 01:10:52;;;;;;;19.40;8.00;;;9.10;99.90;;;;;;4995439;28;20490;-69
2024/02/02 01:13:17;;;;;;;13.67;7.70;;;9.00;99.90;;;;;;4961581;28;20441;-69
2024/02/02 01:15:43;;;;;;;15.77;7.93;;;9.00;99.90;;;;;;4995021;28;20465;-70
2024/02/02 01:18:09;;;;;;;16.67;7.50;;;9.00;99.90;;;;;;4973852;28;20240;-70
2024/02/02 01:20:35;;;;;;;13.93;7.40;;;9.10;99.90;;;;;;4958141;28;20451;-69
2024/02/02 01:23:02;;;;;;;14.23;7.37;;;9.10;99.90;;;;;;4991802;28;20464;-70
2024/02/02 01:25:31;;;;;;;12.17;6.47;;;9.10;99.90;;;;;;4994045;28;20181;-69
2024/02/02 01:27:57;;;;;;;12.50;7.20;;;9.10;99.90;;;;;;4995151;28;20433;-69
2024/02/02 01:30:23;;;;;;;16.80;7.37;;;9.20;99.90;;;;;;4976953;28;20432;-69
2024/02/02 01:32:49;;;;;;;13.67;7.33;;;9.20;99.90;;;;;;4976751;28;20188;-70
2024/02/02 01:35:17;;;;;;;21.70;7.00;;;9.20;99.90;;;;;;4995031;28;20415;-64
2024/02/02 01:37:43;;;;;;;19.03;7.70;;;9.20;99.90;;;;;;4994651;28;20519;-69
2024/02/02 01:40:10;;;;;;;13.20;7.83;;;9.30;99.90;;;;;;4977323;28;20436;-70
2024/02/02 01:42:36;;;;;;;14.53;7.20;;;9.30;99.90;;;;;;4994350;28;20437;-69
2024/02/02 01:45:02;;;;;;;13.30;6.93;;;9.30;99.90;;;;;;4994411;28;20427;-70
2024/02/02 01:47:28;;;;;;;16.27;8.40;;;9.30;99.90;;;;;;4993306;28;20845;-69
2024/02/02 01:49:53;;;;;;;13.93;7.43;;;9.30;99.90;;;;;;4977237;28;20418;-67
2024/02/02 01:52:19;;;;;;;11.87;7.03;;;9.20;99.90;;;;;;4992819;28;20179;-69
2024/02/02 01:54:45;;;;;;;15.30;7.10;;;9.20;99.90;;;;;;4994059;28;20666;-70
2024/02/02 01:57:11;;;;;;;10.60;7.57;;;9.20;99.90;;;;;;4994510;28;20177;-66
2024/02/02 01:59:37;;;;;;;16.00;7.40;;;9.20;99.90;;;;;;4993616;28;20419;-70
2024/02/02 02:02:03;;;;;;;14.83;7.60;;;9.30;99.90;;;;;;4994138;28;20850;-70
2024/02/02 02:04:29;;;;;;;14.23;7.10;;;9.20;99.90;;;;;;4993421;28;20206;-70
2024/02/02 02:06:55;;;;;;;12.53;7.13;;;9.20;99.90;;;;;;4993698;28;20436;-69
2024/02/02 02:09:21;;;;;;;9.83;7.40;;;9.20;99.90;;;;;;4993238;28;20183;-69
2024/02/02 02:11:47;;;;;;;13.27;7.07;;;9.20;99.90;;;;;;4994372;28;20407;-67
2024/02/02 02:14:13;;;;;;;13.27;7.63;;;9.20;99.90;;;;;;4994125;28;20195;-70
2024/02/02 02:16:39;;;;;;;18.83;8.10;;;9.10;99.90;;;;;;4975640;28;20187;-69
2024/02/02 02:19:05;;;;;;;15.17;8.30;;;9.10;99.90;;;;;;4993839;28;20181;-70
2024/02/02 02:21:31;;;;;;;11.70;7.60;;;9.10;99.90;;;;;;4993599;28;20563;-70
2024/02/02 02:23:57;;;;;;;14.33;7.17;;;9.10;99.90;;;;;;4993482;28;20215;-70
2024/02/02 02:26:23;;;;;;;12.50;6.77;;;9.10;99.90;;;;;;4992790;28;20457;-69
2024/02/02 02:28:49;;;;;;;9.87;5.83;;;9.10;99.90;;;;;;4992597;28;20568;-70
2024/02/02 02:31:16;;;;;;;11.10;6.83;;;9.00;99.90;;;;;;4977061;28;20491;-70
2024/02/02 02:33:43;;;;;;;12.10;7.00;;;9.00;99.90;;;;;;4992897;28;20431;-70
2024/02/02 02:36:12;;;;;;;12.13;6.90;;;9.00;99.90;;;;;;4992867;28;20452;-70
2024/02/02 02:38:38;;;;;;;12.70;6.77;;;8.90;99.90;;;;;;4992852;28;20418;-69
2024/02/02 02:41:03;;;;;;;9.77;6.10;;;9.00;99.90;;;;;;4976418;28;20407;-69
2024/02/02 02:43:30;;;;;;;14.17;6.80;;;9.00;99.90;;;;;;4992429;28;20299;-69
2024/02/02 02:45:56;;;;;;;13.43;7.50;;;9.00;99.90;;;;;;4993054;28;20427;-70
2024/02/02 02:48:22;;;;;;;12.40;5.97;;;9.00;99.90;;;;;;4975389;28;20423;-64
2024/02/02 02:50:48;;;;;;;7.53;5.87;;;9.10;99.90;;;;;;4976042;28;20936;-69
2024/02/02 02:53:14;;;;;;;11.93;6.17;;;9.20;99.90;;;;;;4975715;28;20439;-69
2024/02/02 02:55:40;;;;;;;9.10;6.40;;;9.20;99.90;;;;;;4974961;28;20480;-69
2024/02/02 02:58:05;;;;;;;11.07;6.27;;;9.30;99.90;;;;;;4992749;28;20188;-69
2024/02/02 03:00:32;;;;;;;12.60;6.13;;;9.30;99.90;;;;;;4974549;28;20922;-69
2024/02/02 03:02:58;;;;;;;9.60;6.07;;;9.20;99.90;;;;;;4993180;28;20213;-69
2024/02/02 03:05:26;;;;;;;15.63;6.30;;;9.20;99.90;;;;;;4992917;28;20403;-68
2024/02/02 03:07:52;;;;;;;10.20;6.00;;;9.30;99.90;;;;;;4993217;28;20512;-69
2024/02/02 03:10:21;;;;;;;9.43;5.90;;;9.20;99.90;;;;;;4992505;28;20528;-69
2024/02/02 03:12:47;;;;;;;8.90;5.53;;;9.20;99.90;;;;;;4993619;28;20824;-69
2024/02/02 03:15:12;;;;;;;15.50;5.63;;;9.20;99.90;;;;;;4992702;28;20429;-69
2024/02/02 03:17:38;;;;;;;11.37;5.63;;;9.20;99.90;;;;;;4991596;28;20240;-70
2024/02/02 03:20:08;;;;;;;9.97;5.80;;;9.30;99.90;;;;;;4992114;28;20184;-70
2024/02/02 03:22:34;;;;;;;10.53;5.87;;;9.30;99.90;;;;;;4973913;28;20637;-69
2024/02/02 03:25:00;;;;;;;9.57;6.17;;;9.30;99.90;;;;;;4991844;28;20812;-70
2024/02/02 03:27:25;;;;;;;9.30;5.60;;;9.30;99.90;;;;;;4989232;28;20436;-69
2024/02/02 03:29:51;;;;;;;8.73;5.77;;;9.30;99.90;;;;;;4991971;28;20234;-70
2024/02/02 03:32:17;;;;;;;11.00;5.30;;;9.30;99.90;;;;;;4991713;28;20200;-70
2024/02/02 03:34:43;;;;;;;10.93;5.33;;;9.30;99.90;;;;;;4989951;28;20179;-70
2024/02/02 03:37:08;;;;;;;7.60;5.20;;;9.30;99.90;;;;;;4974482;28;20656;-70
2024/02/02 03:39:34;;;;;;;9.50;5.80;;;9.20;99.90;;;;;;4990896;28;20634;-70
2024/02/02 03:42:00;;;;;;;9.57;5.33;;;9.20;99.90;;;;;;4990931;28;20193;-70
2024/02/02 03:44:25;;;;;;;16.57;6.20;;;9.30;99.90;;;;;;4991452;28;20205;-69
2024/02/02 03:46:51;;;;;;;11.60;5.63;;;9.20;99.90;;;;;;4991153;28;20192;-70
2024/02/02 03:49:17;;;;;;;9.73;5.90;;;9.20;99.90;;;;;;4990968;28;20606;-70
2024/02/02 03:51:43;;;;;;;12.23;5.93;;;9.20;99.90;;;;;;4990831;28;20168;-70
2024/02/02 03:54:09;;;;;;;9.33;6.20;;;9.20;99.90;;;;;;4992178;28;20468;-70
2024/02/02 03:56:35;;;;;;;8.37;5.33;;;9.30;99.90;;;;;;4990764;28;20189;-70
2024/02/02 03:59:00;;;;;;;9.90;5.50;;;9.30;99.90;;;;;;4991066;28;20182;-70
2024/02/02 04:01:26;;;;;;;11.53;6.00;;;9.30;99.90;;;;;;4991408;28;20174;-68
2024/02/02 04:03:52;;;;;;;10.03;6.27;;;9.30;99.90;;;;;;4990586;28;20232;-70
2024/02/02 04:06:17;;;;;;;11.00;6.67;;;9.30;99.90;;;;;;4990942;28;20190;-69
2024/02/02 04:08:43;;;;;;;9.33;6.97;;;9.30;99.90;;;;;;4973220;28;20176;-70
2024/02/02 04:11:09;;;;;;;12.33;5.80;;;9.30;99.90;;;;;;4992295;28;20212;-70
2024/02/02 04:13:36;;;;;;;9.80;6.50;;;9.20;99.90;;;;;;4991049;28;20198;-69
2024/02/02 04:16:02;;;;;;;11.90;5.53;;;9.20;99.90;;;;;;4991042;28;20203;-70
2024/02/02 04:18:28;;;;;;;12.33;7.57;;;9.20;99.90;;;;;;4952288;28;1143662;-69
2024/02/02 04:20:53;;;;;;;15.50;6.67;;;9.30;99.90;;;;;;4993341;28;20190;-69
2024/02/02 04:23:19;;;;;;;11.33;6.73;;;9.30;99.90;;;;;;4996012;28;20569;-69
2024/02/02 04:25:45;;;;;;;15.70;6.80;;;9.20;99.90;;;;;;4996423;28;20179;-69
2024/02/02 04:28:11;;;;;;;11.23;6.53;;;9.20;99.90;;;;;;4996142;28;20429;-69
2024/02/02 04:30:37;;;;;;;11.17;6.37;;;9.20;99.90;;;;;;4995153;28;20277;-69
2024/02/02 04:33:04;;;;;;;13.70;7.20;;;9.20;99.90;;;;;;4996949;28;20185;-70
2024/02/02 04:35:34;;;;;;;10.13;6.93;;;9.20;99.90;;;;;;4995484;28;20195;-69
2024/02/02 04:38:01;;;;;;;10.63;6.40;;;9.20;99.90;;;;;;4996349;28;20480;-70
2024/02/02 04:40:27;;;;;;;14.43;8.53;;;9.20;99.90;;;;;;4995310;28;20439;-69
2024/02/02 04:42:53;;;;;;;10.57;5.73;;;9.20;99.90;;;;;;4996175;28;20417;-70
2024/02/02 04:45:18;;;;;;;10.60;6.17;;;9.20;99.90;;;;;;4994622;28;20439;-69
2024/02/02 04:47:44;;;;;;;9.03;8.10;;;9.10;99.90;;;;;;4995093;28;20192;-69
2024/02/02 04:50:10;;;;;;;14.33;6.67;;;9.10;99.90;;;;;;4996580;28;20183;-70
2024/02/02 04:52:36;;;;;;;7.93;5.20;;;9.00;99.90;;;;;;4995309;28;20660;-70
2024/02/02 04:55:01;;;;;;;8.43;5.07;;;9.00;99.90;;;;;;4995839;28;20194;-70
2024/02/02 04:57:27;;;;;;;12.07;5.87;;;9.00;99.90;;;;;;4978246;28;20727;-68
2024/02/02 04:59:54;;;;;;;13.03;5.77;;;9.10;99.90;;;;;;4995548;28;20186;-69
2024/02/02 05:02:20;;;;;;;14.43;6.87;;;9.10;99.90;;;;;;4995079;28;20186;-70
2024/02/02 05:04:46;;;;;;;10.93;5.80;;;9.10;99.90;;;;;;4995599;28;20951;-70
2024/02/02 05:07:12;;;;;;;12.83;6.60;;;9.10;99.90;;;;;;4994836;28;20706;-69
2024/02/02 05:09:38;;;;;;;20.03;6.10;;;9.10;99.90;;;;;;4994871;28;20185;-69
2024/02/02 05:12:05;;;;;;;13.33;6.27;;;9.10;99.90;;;;;;4995883;28;20453;-70
2024/02/02 05:14:30;;;;;;;12.40;5.47;;;9.10;99.90;;;;;;4994754;28;20274;-70
2024/02/02 05:16:56;;;;;;;13.57;5.30;;;9.20;99.90;;;;;;4994977;28;21025;-70
2024/02/02 05:19:22;;;;;;;14.07;6.00;;;9.20;99.90;;;;;;4995253;28;20182;-71
2024/02/02 05:21:48;;;;;;;9.77;6.10;;;9.20;99.90;;;;;;4995434;28;20176;-69
2024/02/02 05:24:14;;;;;;;7.17;5.53;;;9.20;99.90;;;;;;4995093;28;20209;-69
2024/02/02 05:26:39;;;;;;;12.17;5.47;;;9.10;99.90;;;;;;4977208;28;20266;-68
2024/02/02 05:29:05;;;;;;;15.03;8.33;;;9.20;99.90;;;;;;4995119;28;20429;-68
2024/02/02 05:31:31;;;;;;;13.53;6.10;;;9.20;99.90;;;;;;4994650;28;20192;-69
2024/02/02 05:33:57;;;;;;;15.70;9.17;;;9.20;99.90;;;;;;4994621;28;20649;-69
2024/02/02 05:36:22;;;;;;;8.67;6.70;;;9.20;99.90;;;;;;4995097;28;20176;-68
2024/02/02 05:38:48;;;;;;;11.77;5.50;;;9.30;99.90;;;;;;4994690;28;20276;-64
2024/02/02 05:41:14;;;;;;;11.20;7.67;;;9.30;99.90;;;;;;4977615;28;20235;-69
2024/02/02 05:43:39;;;;;;;10.90;6.40;;;9.20;99.90;;;;;;4976689;28;20214;-69
2024/02/02 05:46:05;;;;;;;16.73;6.60;;;9.20;99.90;;;;;;4976508;28;20205;-69
2024/02/02 05:48:31;;;;;;;17.07;7.07;;;9.20;99.90;;;;;;4994170;28;20180;-64
2024/02/02 05:50:57;;;;;;;7.50;5.80;;;9.20;99.90;;;;;;4994233;28;20633;-70
2024/02/02 05:53:23;;;;;;;11.80;5.77;;;9.30;99.90;;;;;;4993522;28;20540;-69
2024/02/02 05:55:48;;;;;;;9.80;5.73;;;9.20;99.90;;;;;;4993982;28;20639;-71
2024/02/02 05:58:14;;;;;;;11.80;5.80;;;9.10;99.90;;;;;;4994216;28;20567;-70
2024/02/02 06:00:40;;;;;;;12.00;4.87;;;9.00;99.90;;;;;;4993565;28;20190;-70
2024/02/02 06:03:06;;;;;;;9.40;6.70;;;8.90;99.90;;;;;;4994507;28;20298;-70
2024/02/02 06:05:33;;;;;;;9.83;6.93;;;8.90;99.90;;;;;;4994551;28;20499;-69
2024/02/02 06:08:01;;;;;;;10.00;5.83;;;8.80;99.90;;;;;;4992498;28;20247;-70
2024/02/02 06:10:27;;;;;;;11.30;6.90;;;8.80;99.90;;;;;;4993644;28;20427;-70
2024/02/02 06:12:54;;;;;;;16.57;5.70;;;8.80;99.90;;;;;;4992779;28;20801;-69
2024/02/02 06:15:20;;;;;;;13.57;7.70;;;8.80;99.90;;;;;;4994713;28;20408;-71
2024/02/02 06:17:45;;;;;;;8.73;5.40;;;8.70;99.90;;;;;;4974832;28;20530;-69
2024/02/02 06:20:12;;;;;;;10.50;5.70;;;8.70;99.90;;;;;;4993841;28;20460;-69
2024/02/02 06:22:38;;;;;;;12.10;6.87;;;8.80;99.90;;;;;;4993065;28;20196;-69
2024/02/02 06:25:04;;;;;;;9.47;5.93;;;8.60;99.90;;;;;;4993376;28;20434;-70
2024/02/02 06:27:30;;;;;;;12.60;6.47;;;8.60;99.90;;;;;;4976606;28;20187;-67
2024/02/02 06:30:00;;;;;;;8.90;5.10;;;8.70;99.90;;;;;;4992818;28;20430;-69
2024/02/02 06:32:26;;;;;;;8.43;6.90;;;8.60;99.90;;;;;;4994017;28;20494;-69
2024/02/02 06:34:55;;;;;;;9.17;6.00;;;8.70;99.90;;;;;;4992950;28;20419;-69
2024/02/02 06:37:28;;;;;;;11.47;6.23;;;8.70;99.90;;;;;;4993534;28;20435;-69
2024/02/02 06:39:57;;;;;;;12.53;5.30;;;8.70;99.90;;;;;;4972542;28;20436;-68
2024/02/02 06:42:26;;;;;;;13.83;5.13;;;8.70;99.90;;;;;;4974663;28;20408;-66
2024/02/02 06:44:54;;;;;;;13.77;5.37;;;8.70;99.90;;;;;;4973196;28;20508;-68
2024/02/02 06:47:20;;;;;;;10.97;5.47;;;8.70;99.90;;;;;;4985016;28;20430;-69
2024/02/02 06:49:46;;;;;;;9.93;5.97;;;8.60;99.90;;;;;;4992645;28;20522;-68
2024/02/02 06:52:16;;;;;;;13.23;7.43;;;8.60;99.90;;;;;;4993926;28;20514;-68
2024/02/02 06:54:43;;;;;;;12.17;6.50;;;8.60;99.90;;;;;;4992171;28;20622;-68
2024/02/02 06:57:09;;;;;;;14.60;6.40;;;8.70;99.90;;;;;;4975776;28;20450;-68
2024/02/02 06:59:38;;;;;;;9.30;6.97;;;8.70;99.90;;;;;;4992187;28;20862;-67
2024/02/02 07:02:25;;;;;;;11.63;5.70;;;8.60;99.90;;;;;;4994231;28;20438;-68
2024/02/02 07:04:51;;;;;;;11.27;6.90;;;8.70;99.90;;;;;;4991378;28;20855;-68
2024/02/02 07:07:18;;;;;;;8.43;6.13;;;8.80;99.90;;;;;;4993460;28;21033;-67
2024/02/02 07:09:51;;;;;;;12.53;7.50;;;8.80;99.90;;;;;;4974902;28;20434;-67
2024/02/02 07:12:44;;;;;;;10.30;5.90;;;8.80;99.90;;;;;;4993170;28;20422;-68
2024/02/02 07:15:17;;;;;;;9.77;5.80;;;8.80;99.90;;;;;;4992859;28;20438;-68
2024/02/02 07:17:45;;;;;;;14.10;6.40;;;8.90;99.90;;;;;;4989089;28;20458;-66
2024/02/02 07:20:23;;;;;;;12.30;6.10;;;8.80;99.90;;;;;;4991398;28;20467;-68
2024/02/02 07:22:51;;;;;;;11.17;6.10;;;8.80;99.90;;;;;;4989363;28;20423;-68
2024/02/02 07:25:21;;;;;;;10.37;5.20;;;8.80;99.90;;;;;;4991581;28;20431;-68
2024/02/02 07:27:54;;;;;;;11.33;6.07;;;8.80;99.90;;;;;;4992459;28;20428;-65
2024/02/02 07:30:44;;;;;;;12.07;6.43;;;8.90;99.90;;;;;;4991476;28;20428;-69
2024/02/02 07:33:35;;;;;;;11.20;4.97;;;8.90;99.90;;;;;;4991050;28;20541;-68
2024/02/02 07:36:01;;;;;;;9.73;5.77;;;8.90;99.90;;;;;;4992027;28;20450;-68
2024/02/02 07:38:46;;;;;;;12.40;5.90;;;8.90;99.90;;;;;;4993616;28;20913;-69
2024/02/02 07:41:13;;;;;;;8.30;5.30;;;8.90;99.90;;;;;;4990415;28;20462;-68
2024/02/02 07:43:39;;;;;;;7.53;5.83;;;8.90;99.90;;;;;;4990942;28;20486;-68
2024/02/02 07:46:06;;;;;;;12.10;5.70;;;8.90;99.90;;;;;;4992239;28;20414;-69
2024/02/02 07:48:32;;;;;;;12.73;5.73;;;8.90;99.90;;;;;;4975004;28;20834;-68
2024/02/02 07:50:58;;;;;;;10.00;5.47;;;8.90;99.90;;;;;;4991369;28;20432;-68
2024/02/02 07:53:25;;;;;;;12.33;6.23;;;8.90;99.90;;;;;;4992004;28;20439;-68
2024/02/02 07:55:51;;;;;;;7.90;4.10;;;8.90;99.90;;;;;;4990853;28;20455;-65
2024/02/02 07:58:22;;;;;;;13.07;5.07;;;9.00;99.90;;;;;;4992600;28;20427;-69
2024/02/02 08:00:48;;;;;;;11.53;6.00;;;9.00;99.90;;;;;;4991148;28;20444;-69
2024/02/02 08:03:14;;;;;;;11.07;5.43;;;9.00;99.90;;;;;;4974799;28;20455;-68
2024/02/02 08:05:40;;;;;;;10.80;5.60;;;9.00;99.90;;;;;;4992286;28;20430;-64
2024/02/02 08:08:06;;;;;;;10.30;7.00;;;9.10;99.90;;;;;;4991738;28;20436;-64
2024/02/02 08:10:33;;;;;;;6.93;4.50;;;9.60;99.90;;;;;;4990833;28;20631;-64
2024/02/02 08:12:58;;;;;;;8.10;4.77;;;10.00;99.90;;;;;;4991956;28;20432;-64
2024/02/02 08:15:25;;;;;;;6.10;5.50;;;10.50;99.90;;;;;;4991920;28;20805;-64
2024/02/02 08:17:51;;;;;;;8.30;5.07;;;10.90;99.90;;;;;;4992069;28;20229;-64
2024/02/02 08:20:18;;;;;;;9.40;5.80;;;11.20;99.90;;;;;;4992228;28;20462;-64
2024/02/02 08:22:46;;;;;;;10.63;6.43;;;11.40;99.90;;;;;;4991687;28;20431;-64
2024/02/02 08:25:12;;;;;;;8.83;5.30;;;11.70;99.90;;;;;;4975820;28;20506;-64
2024/02/02 08:27:38;;;;;;;13.60;8.17;;;12.00;99.90;;;;;;4990782;28;20463;-64
2024/02/02 08:30:08;;;;;;;7.03;3.83;;;12.30;99.90;;;;;;4992278;28;20431;-64
2024/02/02 08:32:39;;;;;;;13.53;8.63;;;12.40;99.90;;;;;;4993308;28;20190;-64
2024/02/02 08:35:06;;;;;;;14.90;6.60;;;12.70;99.90;;;;;;4991822;28;20434;-64
2024/02/02 08:37:32;;;;;;;9.33;5.77;;;12.80;96.90;;;;;;4991892;28;20854;-64
2024/02/02 08:39:58;;;;;;;10.77;6.93;;;13.00;97.00;;;;;;4980948;28;20414;-64
2024/02/02 08:42:24;;;;;;;16.20;8.90;;;13.20;99.80;;;;;;4992307;28;20896;-65
2024/02/02 08:44:55;;;;;;;28.93;15.20;;;13.40;99.90;;;;;;4990953;28;20457;-67
2024/02/02 08:47:22;;;;;;;43.90;27.03;;;13.60;99.90;;;;;;4991738;28;20433;-64
2024/02/02 08:49:59;;;;;;;15.50;7.43;;;13.90;99.10;;;;;;4991308;28;20415;-64
2024/02/02 08:52:32;;;;;;;15.53;6.53;;;13.80;93.80;;;;;;4992596;28;20414;-64
2024/02/02 08:54:59;;;;;;;29.93;15.70;;;13.70;91.50;;;;;;4989924;28;20466;-64
2024/02/02 08:57:39;;;;;;;13.30;6.97;;;13.70;94.40;;;;;;4989960;28;20454;-64
2024/02/02 09:00:13;;;;;;;15.40;9.73;;;13.60;91.20;;;;;;4990541;28;20434;-64
2024/02/02 09:02:55;;;;;;;16.60;7.70;;;13.60;93.00;;;;;;4991609;28;20937;-64
2024/02/02 09:05:28;;;;;;;16.03;8.60;;;13.70;95.00;;;;;;4991818;28;20450;-64
2024/02/02 09:08:33;;;;;;;9.37;5.50;;;13.90;96.90;;;;;;4993120;28;20488;-64
2024/02/02 09:10:59;;;;;;;19.87;9.03;;;14.00;92.70;;;;;;4994922;28;20422;-64
2024/02/02 09:13:27;;;;;;;16.03;9.67;;;14.10;94.60;;;;;;4978696;28;20427;-64
2024/02/02 09:15:53;;;;;;;20.40;11.83;;;14.30;94.40;;;;;;4993919;28;20179;-64
2024/02/02 09:18:40;;;;;;;14.43;8.40;;;14.20;94.20;;;;;;4995058;28;20469;-64
2024/02/02 09:21:10;;;;;;;18.87;11.37;;;14.20;91.30;;;;;;4996139;28;20438;-64
2024/02/02 09:23:39;;;;;;;13.80;9.27;;;14.20;93.40;;;;;;4977443;28;20518;-64
2024/02/02 09:26:15;;;;;;;12.67;7.80;;;14.30;94.80;;;;;;4994120;28;20439;-64
2024/02/02 09:28:45;;;;;;;15.73;9.70;;;14.50;91.90;;;;;;4994782;28;20459;-64
2024/02/02 09:31:21;;;;;;;19.73;9.13;;;14.50;92.70;;;;;;4978377;28;20417;-64
2024/02/02 09:33:50;;;;;;;20.20;8.80;;;14.50;91.90;;;;;;4994463;28;20436;-64
2024/02/02 09:36:20;;;;;;;7.33;4.30;;;14.50;94.20;;;;;;4995163;28;20437;-64
2024/02/02 09:39:01;;;;;;;10.27;5.50;;;14.60;89.30;;;;;;4995104;28;20409;-64
2024/02/02 09:41:52;;;;;;;18.13;10.40;;;14.50;89.50;;;;;;4993997;28;20462;-64
2024/02/02 09:44:21;;;;;;;11.37;4.80;;;14.50;92.90;;;;;;4952291;28;20489;-69
2024/02/02 09:47:04;;;;;;;7.93;3.90;;;14.40;88.00;;;;;;4989180;28;20474;-69
2024/02/02 09:49:33;;;;;;;10.73;7.28;;;14.10;84.90;;;;;;4993876;28;20409;-63
2024/02/02 09:52:14;;;;;;;9.57;5.63;;;13.90;91.90;;;;;;4994301;28;20215;-63
2024/02/02 09:55:19;;;;;;;18.87;10.53;;;14.10;93.90;;;;;;4993374;28;20818;-63
2024/02/02 09:57:49;;;;;;;20.97;12.80;;;14.20;91.90;;;;;;4954847;28;20426;-64
2024/02/02 10:00:33;;;;;;;15.37;8.77;;;14.20;91.00;;;;;;4994805;28;20424;-63
2024/02/02 10:03:14;;;;;;;11.53;7.97;;;14.40;92.10;;;;;;4993530;28;20439;-64
2024/02/02 10:06:11;;;;;;;10.10;5.20;;;14.50;92.10;;;;;;4994502;28;20428;-64
2024/02/02 10:08:52;;;;;;;12.90;8.93;;;14.40;89.30;;;;;;4979650;28;20486;-63
2024/02/02 10:11:27;;;;;;;12.10;6.80;;;14.30;90.90;;;;;;4971059;28;20439;-63
2024/02/02 10:13:52;;;;;;;12.17;8.17;;;14.40;90.60;;;;;;4975911;28;20489;-63
2024/02/02 10:16:33;;;;;;;5.83;5.13;;;14.50;90.20;;;;;;4975800;28;20950;-63
2024/02/02 10:19:23;;;;;;;7.47;5.53;;;14.60;87.60;;;;;;4973462;28;20232;-63
2024/02/02 10:22:04;;;;;;;11.60;6.20;;;14.70;89.30;;;;;;4990896;28;20499;-63
2024/02/02 10:24:55;;;;;;;9.23;6.73;;;14.80;87.30;;;;;;4993919;28;20523;-63
2024/02/02 10:27:55;;;;;;;13.03;8.47;;;14.90;89.30;;;;;;4994228;28;20433;-63
2024/02/02 10:30:37;;;;;;;6.30;5.00;;;15.10;88.50;;;;;;4994425;28;20405;-63
2024/02/02 10:33:20;;;;;;;7.90;5.73;;;15.10;84.90;;;;;;4963522;28;20427;-63
2024/02/02 10:36:06;;;;;;;9.33;5.20;;;15.10;85.80;;;;;;4993327;28;20462;-63
2024/02/02 10:38:43;;;;;;;8.80;5.67;;;15.30;86.30;;;;;;4991234;28;20445;-63
2024/02/02 10:41:29;;;;;;;8.67;5.40;;;15.40;85.50;;;;;;4990677;28;20520;-63
2024/02/02 10:44:04;;;;;;;6.80;4.63;;;15.20;85.90;;;;;;4993115;28;20466;-63
2024/02/02 10:46:42;;;;;;;6.93;5.50;;;15.10;83.50;;;;;;4972766;28;20434;-69
2024/02/02 10:49:26;;;;;;;11.50;5.70;;;15.10;83.00;;;;;;4977727;28;20410;-69
2024/02/02 10:51:58;;;;;;;10.53;5.87;;;14.80;81.50;;;;;;4993124;28;20437;-69
2024/02/02 10:54:40;;;;;;;7.00;4.50;;;14.50;82.40;;;;;;4975628;28;20440;-69
2024/02/02 10:57:31;;;;;;;8.10;5.50;;;14.30;83.30;;;;;;4990295;28;21217;-68
2024/02/02 11:00:00;;;;;;;6.13;4.87;;;14.00;84.40;;;;;;4993693;28;20410;-69
2024/02/02 11:02:31;;;;;;;7.77;6.87;;;13.80;85.60;;;;;;4993218;28;20428;-69
2024/02/02 11:05:16;;;;;;;10.80;5.50;;;13.60;86.30;;;;;;4992424;28;20486;-69
2024/02/02 11:08:02;;;;;;;10.23;6.40;;;13.60;87.60;;;;;;4993542;28;20513;-69
2024/02/02 11:11:04;;;;;;;14.23;5.93;;;13.50;88.40;;;;;;4993119;28;20456;-67
2024/02/02 11:13:42;;;;;;;6.40;4.20;;;13.70;90.00;;;;;;4994150;28;20519;-69
2024/02/02 11:16:31;;;;;;;7.50;5.10;;;13.80;89.80;;;;;;4992479;28;20447;-68
2024/02/02 11:19:37;;;;;;;12.27;5.37;;;13.90;89.40;;;;;;4972116;28;20840;-68
2024/02/02 11:22:11;;;;;;;7.57;5.43;;;14.10;90.00;;;;;;4954602;28;20432;-68
2024/02/02 11:24:52;;;;;;;5.40;4.33;;;14.20;88.50;;;;;;4973128;28;20472;-69
2024/02/02 11:27:37;;;;;;;12.13;5.50;;;14.30;88.90;;;;;;4973789;28;20459;-69
2024/02/02 11:30:08;;;;;;;13.23;6.03;;;14.20;89.00;;;;;;4974896;28;20440;-69
2024/02/02 11:32:40;;;;;;;8.40;4.73;;;14.20;88.10;;;;;;4992913;28;20400;-68
2024/02/02 11:35:35;;;;;;;8.87;6.43;;;14.00;88.70;;;;;;4977959;28;20996;-68
2024/02/02 11:38:16;;;;;;;10.00;5.27;;;14.00;89.40;;;;;;4971889;28;20436;-69
2024/02/02 11:40:42;;;;;;;6.13;5.43;;;14.00;90.00;;;;;;4973502;28;20524;-68
2024/02/02 11:43:10;;;;;;;7.50;5.50;;;14.00;90.00;;;;;;4972440;28;20548;-68
2024/02/02 11:45:48;;;;;;;7.33;6.30;;;14.10;90.40;;;;;;4974021;28;20443;-68
2024/02/02 11:48:24;;;;;;;158.97;92.80;;;14.10;89.70;;;;;;4972934;28;20800;-69
2024/02/02 11:50:52;;;;;;;25.37;16.23;;;14.00;89.80;;;;;;4972647;28;20428;-66
2024/02/02 11:53:48;;;;;;;9.10;5.10;;;14.00;90.40;;;;;;4973093;28;20438;-68
2024/02/02 11:56:15;;;;;;;9.23;5.13;;;14.00;90.40;;;;;;4972224;28;20456;-68
2024/02/02 11:58:45;;;;;;;13.73;5.67;;;14.00;90.40;;;;;;4972396;28;20984;-71
2024/02/02 12:01:28;;;;;;;8.10;5.13;;;14.00;90.60;;;;;;4972549;28;20788;-68
2024/02/02 12:04:32;;;;;;;9.53;5.40;;;14.00;91.00;;;;;;4971636;28;20529;-63
2024/02/02 12:07:27;;;;;;;8.30;4.67;;;14.00;91.10;;;;;;4956428;28;20440;-68
2024/02/02 12:10:00;;;;;;;10.03;5.80;;;14.00;91.40;;;;;;4974307;28;20468;-67
2024/02/02 12:12:49;;;;;;;9.07;5.10;;;14.00;90.80;;;;;;4972920;28;20524;-68
2024/02/02 12:15:15;;;;;;;7.63;5.00;;;14.00;90.60;;;;;;4955178;28;20402;-68
2024/02/02 12:17:41;;;;;;;7.03;4.77;;;14.00;90.80;;;;;;4981343;28;20544;-70
2024/02/02 12:20:10;;;;;;;5.67;4.50;;;13.90;91.70;;;;;;4991862;28;20445;-68
2024/02/02 12:22:36;;;;;;;8.43;5.93;;;14.00;91.20;;;;;;4992922;28;20428;-69
2024/02/02 12:25:09;;;;;;;7.47;5.07;;;14.00;91.40;;;;;;4973453;28;20501;-69
2024/02/02 12:27:36;;;;;;;7.13;5.07;;;14.10;91.10;;;;;;4991226;28;21003;-69
2024/02/02 12:30:03;;;;;;;9.40;5.80;;;14.10;91.30;;;;;;4991866;28;20427;-68
2024/02/02 12:32:29;;;;;;;12.60;5.07;;;14.20;91.40;;;;;;4975055;28;20439;-69
2024/02/02 12:34:55;;;;;;;9.23;5.13;;;14.20;91.60;;;;;;4991310;28;20503;-69
2024/02/02 12:37:21;;;;;;;9.93;4.97;;;14.30;92.10;;;;;;4993175;28;20417;-69
2024/02/02 12:39:49;;;;;;;11.53;5.67;;;14.30;92.00;;;;;;4992107;28;20250;-70
2024/02/02 12:42:16;;;;;;;7.47;5.50;;;14.40;91.60;;;;;;4992825;28;20185;-69
2024/02/02 12:44:42;;;;;;;10.63;4.70;;;14.40;91.50;;;;;;4996857;28;20987;-68
2024/02/02 12:47:08;;;;;;;7.67;4.53;;;14.50;91.60;;;;;;4993858;28;20437;-68
2024/02/02 12:49:36;;;;;;;8.57;4.47;;;14.50;91.40;;;;;;4995905;28;20432;-69
2024/02/02 12:52:04;;;;;;;9.70;5.33;;;14.60;91.60;;;;;;4978104;28;20185;-68
2024/02/02 12:54:30;;;;;;;10.00;4.93;;;14.50;91.40;;;;;;4978139;28;20891;-68
2024/02/02 12:56:55;;;;;;;7.70;4.73;;;14.40;91.40;;;;;;4996129;28;20481;-68
2024/02/02 12:59:23;;;;;;;7.93;5.10;;;14.30;91.60;;;;;;4978643;28;20275;-68